Time;durP1;ratioP1;P1;durP2;ratioP2;P2;SDS_P1;SDS_P2;PMS_P1;PMS_P2;Temp;Humidity;BMP_temperature;BMP_pressure;BME280_temperature;BME280_humidity;BME280_pressure;Samples;Min_cycle;Max_cycle;Signal;HPM_P1;HPM_P2
2023/12/01 00:01:18;;;;;;;20.40;7.70;;;;;;;;;;6361428;22;20344;-94
2023/12/01 00:03:44;;;;;;;27.27;8.65;;;;;;;;;;6359530;22;20478;-93
2023/12/01 00:06:09;;;;;;;24.75;8.68;;;;;;;;;;6361621;22;20036;-94
2023/12/01 00:08:34;;;;;;;29.20;8.93;;;;;;;;;;6360135;22;20482;-94
2023/12/01 00:11:00;;;;;;;25.38;8.93;;;;;;;;;;6361180;22;20006;-94
2023/12/01 00:13:25;;;;;;;25.70;9.07;;;;;;;;;;6386237;22;20032;-94
2023/12/01 00:15:51;;;;;;;26.10;9.30;;;;;;;;;;6359771;22;20689;-93
2023/12/01 00:18:16;;;;;;;23.38;8.52;;;;;;;;;;6366509;22;20037;-95
2023/12/01 00:20:43;;;;;;;18.83;7.35;;;;;;;;;;6364044;22;20642;-96
2023/12/01 00:23:08;;;;;;;21.05;9.05;;;;;;;;;;6361172;22;20014;-94
2023/12/01 00:25:34;;;;;;;24.80;9.13;;;;;;;;;;6364270;22;20010;-96
2023/12/01 00:27:59;;;;;;;26.15;8.80;;;;;;;;;;6362405;22;20011;-95
2023/12/01 00:30:28;;;;;;;23.67;7.15;;;;;;;;;;6363665;22;20609;-94
2023/12/01 00:32:54;;;;;;;22.25;8.05;;;;;;;;;;6360661;22;20010;-95
2023/12/01 00:35:20;;;;;;;20.58;7.18;;;;;;;;;;6361684;22;20014;-95
2023/12/01 00:37:45;;;;;;;23.42;8.68;;;;;;;;;;6363569;22;20099;-92
2023/12/01 00:40:11;;;;;;;26.60;9.45;;;;;;;;;;6362679;22;20091;-95
2023/12/01 00:42:36;;;;;;;20.40;9.05;;;;;;;;;;6362390;22;20117;-95
2023/12/01 00:45:02;;;;;;;21.02;8.20;;;;;;;;;;6363389;22;20043;-95
2023/12/01 00:47:28;;;;;;;23.13;8.70;;;;;;;;;;6363069;22;20093;-95
2023/12/01 00:49:53;;;;;;;23.33;7.65;;;;;;;;;;6362753;22;20010;-94
2023/12/01 00:52:19;;;;;;;30.48;8.45;;;;;;;;;;6362198;22;20037;-95
2023/12/01 00:54:44;;;;;;;24.58;8.10;;;;;;;;;;6363851;22;20011;-96
2023/12/01 00:57:10;;;;;;;25.92;8.05;;;;;;;;;;6363508;22;20048;-95
2023/12/01 00:59:35;;;;;;;18.73;6.97;;;;;;;;;;6364101;22;20014;-93
2023/12/01 01:02:00;;;;;;;23.92;8.25;;;;;;;;;;6361683;22;20440;-94
2023/12/01 01:04:26;;;;;;;18.27;6.03;;;;;;;;;;6363337;22;20010;-94
2023/12/01 01:06:51;;;;;;;17.17;6.70;;;;;;;;;;6364641;22;20077;-95
2023/12/01 01:09:17;;;;;;;20.17;8.15;;;;;;;;;;6367498;22;19982;-93
2023/12/01 01:11:42;;;;;;;22.17;6.93;;;;;;;;;;6363448;22;20037;-94
2023/12/01 01:14:08;;;;;;;26.90;9.23;;;;;;;;;;6363390;22;20340;-94
2023/12/01 01:16:36;;;;;;;26.75;9.73;;;;;;;;;;6363545;22;20018;-94
2023/12/01 01:19:01;;;;;;;17.63;5.93;;;;;;;;;;6363913;22;20072;-94
2023/12/01 01:21:27;;;;;;;19.10;7.70;;;;;;;;;;6363158;22;20010;-93
2023/12/01 01:23:52;;;;;;;26.67;8.65;;;;;;;;;;6368060;22;20065;-95
2023/12/01 01:26:18;;;;;;;24.08;7.93;;;;;;;;;;6369411;22;20018;-94
2023/12/01 01:28:43;;;;;;;23.83;8.57;;;;;;;;;;6373269;22;19998;-94
2023/12/01 01:31:08;;;;;;;16.02;7.25;;;;;;;;;;6379069;22;20028;-95
2023/12/01 01:33:36;;;;;;;24.30;7.93;;;;;;;;;;6369252;22;20013;-94
2023/12/01 01:36:01;;;;;;;32.00;9.50;;;;;;;;;;6368039;22;19998;-95
2023/12/01 01:38:27;;;;;;;20.95;8.60;;;;;;;;;;6364180;22;20019;-93
2023/12/01 01:40:52;;;;;;;22.27;7.85;;;;;;;;;;6362298;22;20025;-94
2023/12/01 01:43:22;;;;;;;19.48;7.13;;;;;;;;;;6390604;22;20011;-95
2023/12/01 01:46:11;;;;;;;21.58;7.88;;;;;;;;;;6362422;22;20011;-95
2023/12/01 01:48:37;;;;;;;30.73;8.85;;;;;;;;;;6360605;22;19998;-94
2023/12/01 01:51:06;;;;;;;18.02;7.72;;;;;;;;;;6364089;22;20002;-92
2023/12/01 01:53:33;;;;;;;23.85;8.82;;;;;;;;;;6361897;22;20014;-95
2023/12/01 01:55:58;;;;;;;25.38;7.43;;;;;;;;;;6361999;22;20021;-95
2023/12/01 01:58:25;;;;;;;25.48;9.63;;;;;;;;;;6360062;22;20015;-95
2023/12/01 02:00:51;;;;;;;24.48;9.88;;;;;;;;;;6362715;22;20074;-95
2023/12/01 02:03:18;;;;;;;27.23;8.85;;;;;;;;;;6362957;22;20029;-94
2023/12/01 02:05:47;;;;;;;29.95;8.50;;;;;;;;;;6362324;22;20079;-93
2023/12/01 02:08:27;;;;;;;28.10;8.73;;;;;;;;;;6362634;22;20010;-94
2023/12/01 02:10:54;;;;;;;23.50;9.18;;;;;;;;;;6362063;22;20090;-95
2023/12/01 02:13:20;;;;;;;26.17;8.55;;;;;;;;;;6362925;22;20014;-94
2023/12/01 02:15:50;;;;;;;24.05;8.30;;;;;;;;;;6365404;22;20010;-94
2023/12/01 02:18:23;;;;;;;25.48;8.40;;;;;;;;;;6363857;22;20006;-94
2023/12/01 02:20:54;;;;;;;20.08;8.02;;;;;;;;;;6361660;22;20014;-94
2023/12/01 02:23:20;;;;;;;26.77;8.27;;;;;;;;;;6361908;22;20046;-94
2023/12/01 02:25:46;;;;;;;20.40;8.00;;;;;;;;;;6362838;22;20010;-95
2023/12/01 02:28:12;;;;;;;32.42;9.82;;;;;;;;;;6363138;22;20380;-95
2023/12/01 02:30:38;;;;;;;27.85;8.48;;;;;;;;;;6364833;22;20002;-96
2023/12/01 02:33:04;;;;;;;22.02;9.18;;;;;;;;;;6362536;22;20021;-95
2023/12/01 02:35:30;;;;;;;26.40;8.85;;;;;;;;;;6362441;22;20021;-95
2023/12/01 02:37:56;;;;;;;24.83;10.30;;;;;;;;;;6359499;22;20024;-96
2023/12/01 02:40:22;;;;;;;27.25;9.77;;;;;;;;;;6362119;22;20014;-96
2023/12/01 02:42:52;;;;;;;20.85;6.45;;;;;;;;;;6363191;22;20010;-96
2023/12/01 02:45:18;;;;;;;26.77;9.27;;;;;;;;;;6363522;22;20002;-95
2023/12/01 02:47:47;;;;;;;29.55;9.00;;;;;;;;;;6361991;22;20045;-94
2023/12/01 02:50:13;;;;;;;27.35;9.77;;;;;;;;;;6363285;22;20093;-96
2023/12/01 02:52:41;;;;;;;24.05;9.02;;;;;;;;;;6364545;22;20042;-96
2023/12/01 02:55:07;;;;;;;26.92;9.55;;;;;;;;;;6364120;22;20301;-96
2023/12/01 02:57:37;;;;;;;21.27;7.95;;;;;;;;;;6363772;22;20091;-95
2023/12/01 03:00:06;;;;;;;27.08;9.40;;;;;;;;;;6365639;22;20006;-96
2023/12/01 03:02:32;;;;;;;24.75;8.68;;;;;;;;;;6366856;22;20011;-95
2023/12/01 03:04:58;;;;;;;27.85;8.93;;;;;;;;;;6366401;22;20014;-96
2023/12/01 03:07:23;;;;;;;29.73;9.07;;;;;;;;;;6366204;22;20417;-95
2023/12/01 03:09:49;;;;;;;30.35;9.68;;;;;;;;;;6366390;22;20007;-96
2023/12/01 03:12:14;;;;;;;30.45;10.95;;;;;;;;;;6362898;22;20477;-94
2023/12/01 03:14:40;;;;;;;26.45;9.40;;;;;;;;;;6365807;22;20011;-93
2023/12/01 03:17:06;;;;;;;28.25;8.48;;;;;;;;;;6400936;22;20042;-95
2023/12/01 03:19:31;;;;;;;26.98;8.43;;;;;;;;;;6390643;22;20134;-91
2023/12/01 03:21:56;;;;;;;31.70;10.15;;;;;;;;;;6378148;22;20001;-95
2023/12/01 03:24:22;;;;;;;23.92;8.63;;;;;;;;;;6385602;22;20003;-96
2023/12/01 03:26:48;;;;;;;27.33;8.13;;;;;;;;;;6387193;22;19991;-96
2023/12/01 03:29:14;;;;;;;22.52;8.30;;;;;;;;;;6388417;22;19998;-95
2023/12/01 03:31:39;;;;;;;29.55;9.00;;;;;;;;;;6389067;22;19995;-96
2023/12/01 03:34:05;;;;;;;28.85;9.02;;;;;;;;;;6387008;22;20011;-93
2023/12/01 03:36:31;;;;;;;21.25;8.00;;;;;;;;;;6386987;22;19998;-92
2023/12/01 03:38:56;;;;;;;26.73;8.57;;;;;;;;;;6386151;22;20024;-94
2023/12/01 03:41:21;;;;;;;32.50;10.32;;;;;;;;;;6387433;22;19998;-95
2023/12/01 03:43:47;;;;;;;32.05;9.75;;;;;;;;;;6387707;22;20002;-94
2023/12/01 03:46:12;;;;;;;20.23;9.15;;;;;;;;;;6377155;22;20628;-95
2023/12/01 03:48:37;;;;;;;26.65;9.40;;;;;;;;;;6386086;22;20367;-95
2023/12/01 03:51:03;;;;;;;22.15;8.55;;;;;;;;;;6390325;22;20033;-94
2023/12/01 03:53:30;;;;;;;25.80;8.93;;;;;;;;;;6385457;22;20011;-94
2023/12/01 03:55:57;;;;;;;21.45;8.50;;;;;;;;;;6381261;22;20087;-94
2023/12/01 03:58:24;;;;;;;27.88;9.80;;;;;;;;;;6375027;22;20018;-94
2023/12/01 04:00:51;;;;;;;25.30;9.23;;;;;;;;;;6369878;22;20410;-95
2023/12/01 04:03:17;;;;;;;30.13;9.63;;;;;;;;;;6362900;22;20006;-94
2023/12/01 04:05:42;;;;;;;46.35;11.57;;;;;;;;;;6366139;22;20136;-95
2023/12/01 04:08:08;;;;;;;26.33;7.70;;;;;;;;;;6363297;22;20006;-96
2023/12/01 04:10:33;;;;;;;25.55;9.45;;;;;;;;;;6363154;22;20033;-96
2023/12/01 04:13:07;;;;;;;26.38;9.18;;;;;;;;;;6389707;22;20012;-96
2023/12/01 04:15:33;;;;;;;30.38;10.43;;;;;;;;;;6362660;22;20023;-96
2023/12/01 04:18:06;;;;;;;25.95;8.57;;;;;;;;;;6363650;22;19998;-95
2023/12/01 04:20:36;;;;;;;29.08;9.73;;;;;;;;;;6364056;22;20020;-96
2023/12/01 04:23:02;;;;;;;33.35;9.73;;;;;;;;;;6361899;22;20014;-95
2023/12/01 04:25:29;;;;;;;23.70;8.48;;;;;;;;;;6362843;22;20144;-96
2023/12/01 04:27:56;;;;;;;35.83;11.10;;;;;;;;;;6362841;22;19999;-95
2023/12/01 04:30:23;;;;;;;29.15;9.55;;;;;;;;;;6366651;22;20009;-95
2023/12/01 04:32:54;;;;;;;29.42;9.57;;;;;;;;;;6377894;22;20040;-96
2023/12/01 04:35:21;;;;;;;29.38;8.63;;;;;;;;;;6362896;22;20026;-95
2023/12/01 04:37:47;;;;;;;28.67;9.13;;;;;;;;;;6362185;22;20010;-96
2023/12/01 04:40:16;;;;;;;25.00;8.43;;;;;;;;;;6362520;22;20090;-96
2023/12/01 04:42:45;;;;;;;30.35;10.50;;;;;;;;;;6362378;22;20062;-94
2023/12/01 04:45:11;;;;;;;23.00;9.25;;;;;;;;;;6363818;22;20005;-96
2023/12/01 04:47:41;;;;;;;28.98;9.70;;;;;;;;;;6361942;22;20013;-96
2023/12/01 04:50:13;;;;;;;24.73;9.10;;;;;;;;;;6361557;22;20030;-96
2023/12/01 04:52:49;;;;;;;25.02;8.75;;;;;;;;;;6361865;22;20010;-94
2023/12/01 04:55:16;;;;;;;22.05;9.02;;;;;;;;;;6363416;22;20010;-95
2023/12/01 04:57:43;;;;;;;32.30;9.85;;;;;;;;;;6363286;22;20006;-96
2023/12/01 05:00:20;;;;;;;25.02;10.00;;;;;;;;;;6364596;22;20046;-96
2023/12/01 05:03:00;;;;;;;22.98;8.98;;;;;;;;;;6365538;22;20011;-93
2023/12/01 05:05:28;;;;;;;20.13;8.20;;;;;;;;;;6363240;22;20010;-96
2023/12/01 05:07:59;;;;;;;30.92;9.65;;;;;;;;;;6359620;22;20025;-96
2023/12/01 05:10:27;;;;;;;25.20;9.13;;;;;;;;;;6363585;22;20022;-96
2023/12/01 05:12:57;;;;;;;27.95;10.25;;;;;;;;;;6368643;22;20007;-96
2023/12/01 05:15:24;;;;;;;20.25;8.45;;;;;;;;;;6366757;22;20057;-96
2023/12/01 05:18:07;;;;;;;19.63;7.57;;;;;;;;;;6364347;22;20439;-96
2023/12/01 05:20:33;;;;;;;29.30;10.55;;;;;;;;;;6363475;22;20021;-96
2023/12/01 05:23:10;;;;;;;31.15;11.48;;;;;;;;;;6360916;22;20010;-96
2023/12/01 05:25:38;;;;;;;24.67;9.50;;;;;;;;;;6362448;22;20006;-96
2023/12/01 05:28:05;;;;;;;36.75;12.65;;;;;;;;;;6361957;22;20010;-96
2023/12/01 05:30:34;;;;;;;38.08;12.73;;;;;;;;;;6361180;22;20097;-96
2023/12/01 05:33:00;;;;;;;23.67;8.85;;;;;;;;;;6363484;22;20575;-96
2023/12/01 05:35:26;;;;;;;34.53;12.60;;;;;;;;;;6364820;22;20464;-96
2023/12/01 05:37:53;;;;;;;31.25;11.23;;;;;;;;;;6365979;22;20114;-96
2023/12/01 05:40:29;;;;;;;21.77;9.48;;;;;;;;;;6368116;22;20014;-95
2023/12/01 05:42:56;;;;;;;28.73;9.95;;;;;;;;;;6368629;22;20017;-96
2023/12/01 05:45:25;;;;;;;21.15;8.52;;;;;;;;;;6364186;22;19994;-96
2023/12/01 05:47:52;;;;;;;30.88;9.98;;;;;;;;;;6363727;22;19998;-96
2023/12/01 05:50:28;;;;;;;24.15;9.48;;;;;;;;;;6363959;22;20042;-96
2023/12/01 05:52:56;;;;;;;30.92;10.68;;;;;;;;;;6363955;22;20024;-96
2023/12/01 05:55:27;;;;;;;32.65;9.20;;;;;;;;;;6363376;22;20070;-96
2023/12/01 05:57:57;;;;;;;24.27;8.38;;;;;;;;;;6366952;22;20021;-96
2023/12/01 06:00:29;;;;;;;27.27;9.35;;;;;;;;;;6364954;22;20010;-94
2023/12/01 06:02:58;;;;;;;17.83;7.00;;;;;;;;;;6365096;22;20543;-95
2023/12/01 06:05:24;;;;;;;25.90;9.75;;;;;;;;;;6362359;22;20479;-96
2023/12/01 06:07:52;;;;;;;35.03;10.18;;;;;;;;;;6367332;22;20033;-95
2023/12/01 06:10:18;;;;;;;28.35;10.25;;;;;;;;;;6367562;22;20020;-93
2023/12/01 06:12:44;;;;;;;37.55;9.27;;;;;;;;;;6371343;22;20026;-93
2023/12/01 06:15:11;;;;;;;26.48;9.77;;;;;;;;;;6379024;22;19985;-96
2023/12/01 06:17:37;;;;;;;24.10;8.85;;;;;;;;;;6378814;22;20094;-96
2023/12/01 06:20:16;;;;;;;21.10;7.68;;;;;;;;;;6368323;22;20023;-96
2023/12/01 06:22:56;;;;;;;19.35;6.82;;;;;;;;;;6363570;22;20044;-95
2023/12/01 06:25:29;;;;;;;22.35;7.57;;;;;;;;;;6362999;22;20017;-95
2023/12/01 06:27:58;;;;;;;27.10;9.45;;;;;;;;;;6362867;22;20002;-95
2023/12/01 06:30:25;;;;;;;29.77;9.93;;;;;;;;;;6362234;22;20009;-94
2023/12/01 06:32:50;;;;;;;22.85;8.25;;;;;;;;;;6362533;22;20079;-94
2023/12/01 06:35:19;;;;;;;21.10;8.60;;;;;;;;;;6364167;22;20010;-94
2023/12/01 06:37:45;;;;;;;23.70;8.20;;;;;;;;;;6363471;22;20026;-95
2023/12/01 06:40:12;;;;;;;21.38;8.35;;;;;;;;;;6368349;22;20077;-96
2023/12/01 06:42:44;;;;;;;28.40;9.27;;;;;;;;;;6363647;22;20488;-96
2023/12/01 06:45:11;;;;;;;24.58;8.60;;;;;;;;;;6363325;22;19998;-95
2023/12/01 06:47:38;;;;;;;22.00;8.45;;;;;;;;;;6364703;22;20065;-94
2023/12/01 06:50:05;;;;;;;24.63;8.93;;;;;;;;;;6371365;22;20427;-92
2023/12/01 06:52:31;;;;;;;16.70;5.82;;;;;;;;;;6366785;22;20010;-95
2023/12/01 06:54:56;;;;;;;24.23;7.40;;;;;;;;;;6364060;22;20011;-95
2023/12/01 06:57:22;;;;;;;24.27;9.55;;;;;;;;;;6366815;22;20026;-94
2023/12/01 06:59:47;;;;;;;22.70;7.53;;;;;;;;;;6364268;22;20077;-94
2023/12/01 07:02:17;;;;;;;24.13;9.20;;;;;;;;;;6361215;22;20011;-95
2023/12/01 07:04:44;;;;;;;17.63;5.50;;;;;;;;;;6365567;22;20464;-95
2023/12/01 07:07:09;;;;;;;28.13;9.52;;;;;;;;;;6362699;22;20012;-95
2023/12/01 07:09:34;;;;;;;27.60;9.32;;;;;;;;;;6361093;22;20090;-96
2023/12/01 07:12:04;;;;;;;23.33;9.00;;;;;;;;;;6360554;22;20067;-96
2023/12/01 07:14:29;;;;;;;18.23;8.20;;;;;;;;;;6362845;22;20010;-95
2023/12/01 07:16:54;;;;;;;25.60;8.48;;;;;;;;;;6359289;22;20065;-95
2023/12/01 07:19:20;;;;;;;28.48;9.45;;;;;;;;;;6359770;22;20016;-95
2023/12/01 07:21:45;;;;;;;34.35;9.85;;;;;;;;;;6359238;22;20006;-94
2023/12/01 07:24:11;;;;;;;25.75;9.18;;;;;;;;;;6361387;22;20055;-94
2023/12/01 07:26:36;;;;;;;24.10;8.32;;;;;;;;;;6385413;22;20052;-95
2023/12/01 07:29:04;;;;;;;24.77;8.68;;;;;;;;;;6359748;22;20014;-95
2023/12/01 07:31:32;;;;;;;26.05;7.90;;;;;;;;;;6359354;22;20439;-95
2023/12/01 07:33:57;;;;;;;28.48;10.05;;;;;;;;;;6359636;22;20018;-95
2023/12/01 07:36:27;;;;;;;32.25;10.65;;;;;;;;;;6361169;22;20093;-96
2023/12/01 07:38:52;;;;;;;29.00;9.45;;;;;;;;;;6362005;22;20093;-94
2023/12/01 07:41:18;;;;;;;34.03;10.48;;;;;;;;;;6359160;22;20042;-95
2023/12/01 07:43:43;;;;;;;31.13;9.43;;;;;;;;;;6359895;22;20544;-93
2023/12/01 12:04:11;;;;;;;20.15;8.20;;;;;;;;;;6394457;22;20099;-81
2023/12/01 12:06:36;;;;;;;24.38;8.98;;;;;;;;;;6360734;22;20083;-81
2023/12/01 12:09:06;;;;;;;26.45;9.93;;;;;;;;;;6361233;22;19997;-82
2023/12/01 12:11:35;;;;;;;23.55;8.63;;;;;;;;;;6361442;22;20002;-81
2023/12/01 12:14:02;;;;;;;21.50;7.85;;;;;;;;;;6363433;22;20013;-82
2023/12/01 12:16:28;;;;;;;15.70;6.55;;;;;;;;;;6391955;22;20123;-82
2023/12/01 12:18:59;;;;;;;23.55;9.73;;;;;;;;;;6390891;22;20038;-81
2023/12/01 12:21:27;;;;;;;23.75;9.13;;;;;;;;;;6363613;22;20432;-81
2023/12/01 12:23:53;;;;;;;17.70;6.93;;;;;;;;;;6394067;22;20014;-81
2023/12/01 12:26:20;;;;;;;23.20;8.68;;;;;;;;;;6391723;22;20090;-82
2023/12/01 12:29:07;;;;;;;29.48;10.90;;;;;;;;;;6368146;22;20028;-82
2023/12/01 12:31:37;;;;;;;28.20;10.13;;;;;;;;;;6379753;22;20105;-81
2023/12/01 12:34:08;;;;;;;31.23;9.45;;;;;;;;;;6378235;22;20043;-81
2023/12/01 12:36:36;;;;;;;28.02;11.18;;;;;;;;;;6366776;22;20002;-80
2023/12/01 12:39:07;;;;;;;28.77;10.25;;;;;;;;;;6366593;22;20079;-81
2023/12/01 12:41:34;;;;;;;32.17;11.95;;;;;;;;;;6362397;22;20014;-81
2023/12/01 12:44:01;;;;;;;28.15;10.55;;;;;;;;;;6361021;22;20566;-81
2023/12/01 12:46:31;;;;;;;24.13;10.15;;;;;;;;;;6387778;22;20049;-82
2023/12/01 12:48:58;;;;;;;26.63;9.90;;;;;;;;;;6383257;22;20517;-80
2023/12/01 12:51:25;;;;;;;33.38;11.73;;;;;;;;;;6391060;22;19997;-81
2023/12/01 12:53:52;;;;;;;26.63;9.43;;;;;;;;;;6391098;22;19998;-81
2023/12/01 12:56:20;;;;;;;29.20;9.93;;;;;;;;;;6385701;22;20605;-81
2023/12/01 12:58:46;;;;;;;26.88;9.98;;;;;;;;;;6385787;22;20018;-81
2023/12/01 13:01:13;;;;;;;29.27;11.30;;;;;;;;;;6421218;22;20364;-81
2023/12/01 13:03:42;;;;;;;26.73;9.27;;;;;;;;;;6392480;22;20018;-81
2023/12/01 13:06:08;;;;;;;28.73;10.73;;;;;;;;;;6424213;22;20005;-81
2023/12/01 13:08:34;;;;;;;32.55;11.75;;;;;;;;;;6424560;22;20013;-81
2023/12/01 13:11:01;;;;;;;34.03;12.57;;;;;;;;;;6423615;22;20040;-80
2023/12/01 13:13:27;;;;;;;22.45;9.00;;;;;;;;;;6430238;22;20017;-80
2023/12/01 13:15:53;;;;;;;26.92;10.18;;;;;;;;;;6401322;22;20016;-81
2023/12/01 13:18:18;;;;;;;28.77;10.55;;;;;;;;;;6395432;22;20005;-80
2023/12/01 13:20:45;;;;;;;31.52;10.88;;;;;;;;;;6395490;22;20009;-82
2023/12/01 13:23:10;;;;;;;22.95;9.93;;;;;;;;;;6394600;22;20041;-81
2023/12/01 13:25:36;;;;;;;23.23;9.45;;;;;;;;;;6422985;22;20157;-81
2023/12/01 13:28:01;;;;;;;31.95;9.85;;;;;;;;;;6422631;22;20013;-81
2023/12/01 13:30:27;;;;;;;25.25;9.18;;;;;;;;;;6422896;22;20448;-81
2023/12/01 13:32:53;;;;;;;20.70;9.18;;;;;;;;;;6423125;22;20000;-82
2023/12/01 13:35:18;;;;;;;25.90;8.93;;;;;;;;;;6395322;22;20066;-81
2023/12/01 13:37:44;;;;;;;15.02;6.88;;;;;;;;;;6421898;22;20021;-81
2023/12/01 13:40:09;;;;;;;23.85;9.13;;;;;;;;;;6423194;22;20117;-81
2023/12/01 13:42:36;;;;;;;25.27;8.07;;;;;;;;;;6423855;22;20057;-82
2023/12/01 13:45:02;;;;;;;17.65;7.25;;;;;;;;;;6425077;22;20028;-81
2023/12/01 13:47:32;;;;;;;24.00;7.95;;;;;;;;;;6425462;22;20016;-81
2023/12/01 13:49:57;;;;;;;22.42;8.75;;;;;;;;;;6432172;22;20025;-81
2023/12/01 13:52:26;;;;;;;27.00;10.55;;;;;;;;;;6407667;22;20038;-81
2023/12/01 13:54:55;;;;;;;28.30;9.95;;;;;;;;;;6426659;22;20006;-85
2023/12/01 13:57:20;;;;;;;23.80;9.57;;;;;;;;;;6396399;22;19997;-86
2023/12/01 13:59:46;;;;;;;28.05;9.27;;;;;;;;;;6426755;22;20005;-84
2023/12/01 14:02:12;;;;;;;28.30;9.95;;;;;;;;;;6397346;22;20020;-89
2023/12/01 14:04:38;;;;;;;22.33;8.90;;;;;;;;;;6435338;22;20025;-88
2023/12/01 14:07:05;;;;;;;21.52;7.18;;;;;;;;;;6451478;22;20000;-89
2023/12/01 14:09:31;;;;;;;24.98;9.55;;;;;;;;;;6427156;22;19990;-89
2023/12/01 14:11:57;;;;;;;26.77;10.05;;;;;;;;;;6454270;22;20046;-89
2023/12/01 14:14:22;;;;;;;36.65;11.07;;;;;;;;;;6443847;22;20010;-84
2023/12/01 14:16:47;;;;;;;39.05;12.98;;;;;;;;;;6429842;22;20386;-84
2023/12/01 14:19:13;;;;;;;35.25;13.25;;;;;;;;;;6396649;22;20047;-85
2023/12/01 14:21:39;;;;;;;36.20;11.52;;;;;;;;;;6424292;22;20095;-85
2023/12/01 14:24:06;;;;;;;31.42;10.95;;;;;;;;;;6396337;22;19997;-84
2023/12/01 14:26:32;;;;;;;36.83;11.55;;;;;;;;;;6395274;22;20069;-84
2023/12/01 14:28:58;;;;;;;34.40;13.10;;;;;;;;;;6395206;22;20021;-84
2023/12/01 14:31:24;;;;;;;46.65;12.65;;;;;;;;;;6394954;22;20239;-84
2023/12/01 14:33:49;;;;;;;31.35;11.68;;;;;;;;;;6422829;22;20005;-84
2023/12/01 14:36:14;;;;;;;34.67;11.27;;;;;;;;;;6394520;22;20393;-85
2023/12/01 14:38:40;;;;;;;32.55;10.68;;;;;;;;;;6395035;22;20660;-85
2023/12/01 14:41:06;;;;;;;31.20;11.07;;;;;;;;;;6394516;22;20586;-83
2023/12/01 14:43:31;;;;;;;34.05;11.73;;;;;;;;;;6393612;22;20018;-85
2023/12/01 14:45:56;;;;;;;34.05;11.32;;;;;;;;;;6395877;22;20501;-85
2023/12/01 14:48:22;;;;;;;45.78;13.40;;;;;;;;;;6394476;22;20097;-84
2023/12/01 14:50:49;;;;;;;26.20;10.30;;;;;;;;;;6395588;22;19997;-85
2023/12/01 14:53:16;;;;;;;42.85;12.85;;;;;;;;;;6392654;22;20429;-84
2023/12/01 14:55:41;;;;;;;36.50;12.90;;;;;;;;;;6422414;22;20013;-84
2023/12/01 14:58:06;;;;;;;34.95;11.98;;;;;;;;;;6394288;22;20459;-84
2023/12/01 15:00:32;;;;;;;42.75;16.05;;;;;;;;;;6395993;22;20068;-83
2023/12/01 15:02:58;;;;;;;45.10;14.88;;;;;;;;;;6401678;22;20579;-85
2023/12/01 15:05:23;;;;;;;47.55;12.40;;;;;;;;;;6401519;22;20009;-84
2023/12/01 15:07:49;;;;;;;28.40;8.90;;;;;;;;;;6401107;22;20016;-81
2023/12/01 15:10:14;;;;;;;26.63;10.68;;;;;;;;;;6429486;22;20043;-86
2023/12/01 15:12:40;;;;;;;26.50;10.73;;;;;;;;;;6414080;22;20020;-86
2023/12/01 15:15:06;;;;;;;26.33;9.48;;;;;;;;;;6433490;22;19997;-85
2023/12/01 15:17:32;;;;;;;35.67;11.35;;;;;;;;;;6397103;22;20016;-85
2023/12/01 15:19:58;;;;;;;24.80;9.57;;;;;;;;;;6424116;22;20480;-85
2023/12/01 15:22:23;;;;;;;35.85;11.63;;;;;;;;;;6395637;22;20020;-86
2023/12/01 15:24:49;;;;;;;36.40;11.13;;;;;;;;;;6394148;22;20010;-85
2023/12/01 15:27:14;;;;;;;35.38;11.95;;;;;;;;;;6393267;22;19997;-88
2023/12/01 15:29:40;;;;;;;28.20;9.20;;;;;;;;;;6423272;22;20002;-84
2023/12/01 15:32:06;;;;;;;25.10;9.52;;;;;;;;;;6393069;22;20009;-83
2023/12/01 15:34:31;;;;;;;29.50;10.27;;;;;;;;;;6422024;22;20017;-83
2023/12/01 15:36:57;;;;;;;36.90;11.85;;;;;;;;;;6422696;22;20360;-84
2023/12/01 15:39:22;;;;;;;30.55;8.60;;;;;;;;;;6421740;22;20040;-82
2023/12/01 15:41:47;;;;;;;36.03;10.95;;;;;;;;;;6394305;22;20038;-83
2023/12/01 15:44:13;;;;;;;40.90;12.13;;;;;;;;;;6421271;22;20041;-84
2023/12/01 15:46:38;;;;;;;33.88;12.65;;;;;;;;;;6422533;22;20009;-83
2023/12/01 15:49:03;;;;;;;30.02;10.10;;;;;;;;;;6395674;22;20409;-83
2023/12/01 15:51:29;;;;;;;32.85;10.60;;;;;;;;;;6422724;22;19997;-80
2023/12/01 15:53:54;;;;;;;38.00;12.52;;;;;;;;;;6423176;22;20419;-80
2023/12/01 15:56:20;;;;;;;31.90;10.45;;;;;;;;;;6423030;22;20760;-81
2023/12/01 15:58:46;;;;;;;41.33;13.18;;;;;;;;;;6420240;22;20100;-82
2023/12/01 16:01:11;;;;;;;42.13;12.38;;;;;;;;;;6392970;22;20037;-81
2023/12/01 16:03:37;;;;;;;36.67;11.68;;;;;;;;;;6423349;22;20456;-81
2023/12/01 16:06:02;;;;;;;29.75;10.25;;;;;;;;;;6424103;22;20046;-81
2023/12/01 16:08:28;;;;;;;36.15;11.25;;;;;;;;;;6394479;22;20005;-82
2023/12/01 16:10:54;;;;;;;36.80;12.98;;;;;;;;;;6394901;22;20013;-81
2023/12/01 16:13:19;;;;;;;34.88;12.27;;;;;;;;;;6423262;22;20014;-81
2023/12/01 16:15:45;;;;;;;29.50;9.80;;;;;;;;;;6423958;22;20029;-81
2023/12/01 16:18:10;;;;;;;37.58;10.68;;;;;;;;;;6394574;22;20001;-81
2023/12/01 16:20:35;;;;;;;30.58;9.05;;;;;;;;;;6394462;22;20351;-81
2023/12/01 16:23:01;;;;;;;27.92;10.27;;;;;;;;;;6423722;22;20369;-81
2023/12/01 16:25:26;;;;;;;31.42;11.40;;;;;;;;;;6395578;22;20024;-81
2023/12/01 16:27:53;;;;;;;30.40;10.07;;;;;;;;;;6424197;22;20376;-82
2023/12/01 16:30:18;;;;;;;34.10;11.32;;;;;;;;;;6433734;22;20861;-81
2023/12/01 16:32:44;;;;;;;35.65;10.27;;;;;;;;;;6438464;22;20005;-81
2023/12/01 16:35:10;;;;;;;35.30;10.55;;;;;;;;;;6428858;22;20488;-81
2023/12/01 16:37:36;;;;;;;38.58;13.88;;;;;;;;;;6393213;22;20061;-82
2023/12/01 16:40:02;;;;;;;28.90;9.88;;;;;;;;;;6394416;22;20040;-81
2023/12/01 16:42:27;;;;;;;42.30;11.45;;;;;;;;;;6421521;22;20630;-82
2023/12/01 16:44:53;;;;;;;31.25;10.57;;;;;;;;;;6423121;22;20006;-81
2023/12/01 16:47:18;;;;;;;44.47;14.18;;;;;;;;;;6422568;22;20021;-81
2023/12/01 16:49:44;;;;;;;32.42;10.70;;;;;;;;;;6395285;22;20084;-81
2023/12/01 16:52:09;;;;;;;28.00;10.35;;;;;;;;;;6425674;22;20080;-82
2023/12/01 16:54:34;;;;;;;12.35;6.78;;;;;;;;;;6426103;22;20337;-82
2023/12/01 16:57:00;;;;;;;23.73;8.88;;;;;;;;;;6422951;22;20069;-82
2023/12/01 16:59:25;;;;;;;31.92;11.13;;;;;;;;;;6423245;22;20014;-82
2023/12/01 17:01:51;;;;;;;20.27;8.52;;;;;;;;;;6393487;22;20017;-82
2023/12/01 17:04:16;;;;;;;27.17;8.23;;;;;;;;;;6423198;22;20456;-82
2023/12/01 17:06:41;;;;;;;29.35;11.52;;;;;;;;;;6421946;22;20427;-82
2023/12/01 17:09:07;;;;;;;32.20;11.52;;;;;;;;;;6394424;22;20015;-82
2023/12/01 17:11:33;;;;;;;9.43;4.43;;;;;;;;;;6423042;22;20009;-82
2023/12/01 17:13:58;;;;;;;21.10;8.05;;;;;;;;;;6394721;22;20014;-82
2023/12/01 17:16:24;;;;;;;27.02;9.75;;;;;;;;;;6422884;22;20142;-82
2023/12/01 17:18:49;;;;;;;15.60;6.32;;;;;;;;;;6394244;22;20013;-82
2023/12/01 17:21:15;;;;;;;18.60;7.90;;;;;;;;;;6395683;22;20009;-82
2023/12/01 17:23:43;;;;;;;24.13;8.80;;;;;;;;;;6423161;22;20010;-82
2023/12/01 17:26:12;;;;;;;16.75;7.45;;;;;;;;;;6420896;22;20130;-82
2023/12/01 17:28:39;;;;;;;29.35;9.50;;;;;;;;;;6394570;22;20122;-82
2023/12/01 17:31:05;;;;;;;20.52;8.38;;;;;;;;;;6394402;22;20001;-82
2023/12/01 17:33:31;;;;;;;20.20;7.57;;;;;;;;;;6422755;22;20100;-81
2023/12/01 17:35:56;;;;;;;19.42;7.78;;;;;;;;;;6423346;22;20079;-83
2023/12/01 17:38:23;;;;;;;16.92;7.35;;;;;;;;;;6394587;22;20355;-79
2023/12/01 17:40:48;;;;;;;19.02;7.53;;;;;;;;;;6394555;22;20020;-80
2023/12/01 17:43:14;;;;;;;19.58;8.43;;;;;;;;;;6394449;22;20001;-79
2023/12/01 17:45:40;;;;;;;15.40;5.90;;;;;;;;;;6394859;22;19997;-80
2023/12/01 17:48:06;;;;;;;21.63;7.70;;;;;;;;;;6425843;22;20008;-79
2023/12/01 17:50:31;;;;;;;18.63;6.55;;;;;;;;;;6433105;22;20009;-80
2023/12/01 17:52:56;;;;;;;18.10;7.95;;;;;;;;;;6413492;22;20073;-82
2023/12/01 17:55:22;;;;;;;19.77;8.25;;;;;;;;;;6406394;22;20081;-81
2023/12/01 17:57:48;;;;;;;16.70;6.65;;;;;;;;;;6424051;22;20048;-81
2023/12/01 18:00:14;;;;;;;18.05;7.88;;;;;;;;;;6424050;22;20440;-81
2023/12/01 18:02:40;;;;;;;22.55;8.15;;;;;;;;;;6394899;22;20418;-80
2023/12/01 18:05:06;;;;;;;20.70;8.32;;;;;;;;;;6422541;22;20476;-80
2023/12/01 18:07:31;;;;;;;22.58;7.78;;;;;;;;;;6394382;22;20021;-80
2023/12/01 18:09:56;;;;;;;18.55;8.38;;;;;;;;;;6393548;22;20010;-81
2023/12/01 18:12:23;;;;;;;23.75;8.90;;;;;;;;;;6393688;22;20062;-81
2023/12/01 18:14:49;;;;;;;23.42;8.65;;;;;;;;;;6394940;22;20108;-81
2023/12/01 18:17:14;;;;;;;22.65;9.05;;;;;;;;;;6422696;22;20089;-80
2023/12/01 18:19:40;;;;;;;25.20;9.90;;;;;;;;;;6422655;22;20094;-81
2023/12/01 18:22:05;;;;;;;36.03;10.48;;;;;;;;;;6421415;22;20009;-80
2023/12/01 18:24:31;;;;;;;23.33;8.70;;;;;;;;;;6411768;22;20013;-81
2023/12/01 18:26:56;;;;;;;26.23;9.00;;;;;;;;;;6425033;22;20064;-81
2023/12/01 18:29:22;;;;;;;24.85;7.25;;;;;;;;;;6443793;22;20027;-81
2023/12/01 18:31:47;;;;;;;22.45;8.95;;;;;;;;;;6395367;22;20001;-81
2023/12/01 18:34:13;;;;;;;30.15;8.95;;;;;;;;;;6398985;22;20009;-81
2023/12/01 18:36:38;;;;;;;21.95;7.63;;;;;;;;;;6427634;22;20357;-81
2023/12/01 18:39:05;;;;;;;19.63;6.97;;;;;;;;;;6427296;22;20061;-81
2023/12/01 18:41:30;;;;;;;24.70;7.90;;;;;;;;;;6432636;22;20005;-80